Terminal Aerodrome Forecast
Issued by NWS

Current Version | Previous Version | Text Only | Print | Product List | Glossary On
Versions: 1 2 3 4 5 6 7 8 9 10 11 12 13 14 15 16 17
000
FTUS45 KCYS 201134
TAFLAR
TAF
KLAR 201134Z 2012/2112 05005KT P6SM VCSH OVC050
     FM201300 28010KT 5SM -SN BR BKN015 OVC025
     FM201600 28014KT P6SM BKN050 OVC100
     FM202200 25010KT P6SM BKN250=

USA.gov is the U.S. government's official web portal to all federal, state and local government web resources and services.